sensor_id;sensor_type;location;lat;lon;timestamp;P1;durP1;ratioP1;P2;durP2;ratioP2
56824;SDS011;42705;50.326;18.772;2022-07-29T00:02:35;15.85;;;7.45;;
56824;SDS011;42705;50.326;18.772;2022-07-29T00:07:55;15.32;;;6.17;;
56824;SDS011;42705;50.326;18.772;2022-07-29T00:13:16;32.60;;;11.30;;
56824;SDS011;42705;50.326;18.772;2022-07-29T00:18:37;16.67;;;7.10;;
56824;SDS011;42705;50.326;18.772;2022-07-29T00:23:59;19.48;;;6.75;;
56824;SDS011;42705;50.326;18.772;2022-07-29T00:29:20;12.43;;;5.00;;
56824;SDS011;42705;50.326;18.772;2022-07-29T00:34:41;12.37;;;4.80;;
56824;SDS011;42705;50.326;18.772;2022-07-29T00:40:20;9.73;;;4.50;;
56824;SDS011;42705;50.326;18.772;2022-07-29T00:45:41;10.82;;;4.55;;
56824;SDS011;42705;50.326;18.772;2022-07-29T00:51:03;10.53;;;3.33;;
56824;SDS011;42705;50.326;18.772;2022-07-29T00:56:25;11.28;;;3.92;;
56824;SDS011;42705;50.326;18.772;2022-07-29T01:01:47;10.53;;;4.45;;
56824;SDS011;42705;50.326;18.772;2022-07-29T01:07:07;16.45;;;6.37;;
56824;SDS011;42705;50.326;18.772;2022-07-29T01:12:29;13.03;;;5.33;;
56824;SDS011;42705;50.326;18.772;2022-07-29T01:24:04;15.20;;;5.83;;
56824;SDS011;42705;50.326;18.772;2022-07-29T01:29:51;11.45;;;4.55;;
56824;SDS011;42705;50.326;18.772;2022-07-29T01:35:21;26.23;;;8.25;;
56824;SDS011;42705;50.326;18.772;2022-07-29T01:41:00;16.97;;;5.60;;
56824;SDS011;42705;50.326;18.772;2022-07-29T01:46:31;11.70;;;3.95;;
56824;SDS011;42705;50.326;18.772;2022-07-29T01:51:57;6.83;;;2.70;;
56824;SDS011;42705;50.326;18.772;2022-07-29T01:57:22;6.78;;;2.80;;
56824;SDS011;42705;50.326;18.772;2022-07-29T02:02:46;9.00;;;3.30;;
56824;SDS011;42705;50.326;18.772;2022-07-29T02:08:09;10.35;;;3.50;;
56824;SDS011;42705;50.326;18.772;2022-07-29T02:13:31;10.40;;;3.75;;
56824;SDS011;42705;50.326;18.772;2022-07-29T02:18:54;14.73;;;5.97;;
56824;SDS011;42705;50.326;18.772;2022-07-29T02:24:17;23.38;;;8.83;;
56824;SDS011;42705;50.326;18.772;2022-07-29T02:29:40;12.78;;;5.12;;
56824;SDS011;42705;50.326;18.772;2022-07-29T02:35:02;10.58;;;3.55;;
56824;SDS011;42705;50.326;18.772;2022-07-29T02:40:25;7.33;;;3.17;;
56824;SDS011;42705;50.326;18.772;2022-07-29T02:45:46;32.42;;;10.65;;
56824;SDS011;42705;50.326;18.772;2022-07-29T02:51:16;19.35;;;7.22;;
56824;SDS011;42705;50.326;18.772;2022-07-29T02:56:42;10.50;;;4.80;;
56824;SDS011;42705;50.326;18.772;2022-07-29T03:02:05;26.00;;;9.43;;
56824;SDS011;42705;50.326;18.772;2022-07-29T03:07:29;17.17;;;5.53;;
56824;SDS011;42705;50.326;18.772;2022-07-29T03:12:51;11.75;;;4.83;;
56824;SDS011;42705;50.326;18.772;2022-07-29T03:18:12;19.30;;;6.53;;
56824;SDS011;42705;50.326;18.772;2022-07-29T03:23:34;9.00;;;3.40;;
56824;SDS011;42705;50.326;18.772;2022-07-29T03:28:55;8.00;;;2.58;;
56824;SDS011;42705;50.326;18.772;2022-07-29T03:34:16;13.38;;;5.17;;
56824;SDS011;42705;50.326;18.772;2022-07-29T03:39:38;16.97;;;5.57;;
56824;SDS011;42705;50.326;18.772;2022-07-29T03:45:03;7.85;;;3.40;;
56824;SDS011;42705;50.326;18.772;2022-07-29T03:53:03;6.60;;;2.40;;
56824;SDS011;42705;50.326;18.772;2022-07-29T03:58:26;9.20;;;2.98;;
56824;SDS011;42705;50.326;18.772;2022-07-29T04:03:48;6.80;;;2.67;;
56824;SDS011;42705;50.326;18.772;2022-07-29T04:09:09;6.53;;;2.83;;
56824;SDS011;42705;50.326;18.772;2022-07-29T04:14:31;5.70;;;2.53;;
56824;SDS011;42705;50.326;18.772;2022-07-29T04:19:53;8.05;;;2.80;;
56824;SDS011;42705;50.326;18.772;2022-07-29T04:25:14;6.20;;;2.83;;
56824;SDS011;42705;50.326;18.772;2022-07-29T04:30:35;9.28;;;2.58;;
56824;SDS011;42705;50.326;18.772;2022-07-29T04:41:18;12.28;;;4.75;;
56824;SDS011;42705;50.326;18.772;2022-07-29T04:46:39;20.80;;;6.97;;
56824;SDS011;42705;50.326;18.772;2022-07-29T04:51:59;27.13;;;9.83;;
56824;SDS011;42705;50.326;18.772;2022-07-29T04:57:20;16.55;;;7.00;;
56824;SDS011;42705;50.326;18.772;2022-07-29T05:02:41;14.93;;;5.67;;
56824;SDS011;42705;50.326;18.772;2022-07-29T05:08:02;24.87;;;9.00;;
56824;SDS011;42705;50.326;18.772;2022-07-29T05:13:23;13.80;;;5.43;;
56824;SDS011;42705;50.326;18.772;2022-07-29T05:18:44;15.03;;;4.72;;
56824;SDS011;42705;50.326;18.772;2022-07-29T05:24:05;13.10;;;4.80;;
56824;SDS011;42705;50.326;18.772;2022-07-29T05:29:26;18.32;;;6.35;;
56824;SDS011;42705;50.326;18.772;2022-07-29T05:34:47;12.53;;;5.10;;
56824;SDS011;42705;50.326;18.772;2022-07-29T05:40:08;10.48;;;4.08;;
56824;SDS011;42705;50.326;18.772;2022-07-29T05:45:30;10.38;;;3.72;;
56824;SDS011;42705;50.326;18.772;2022-07-29T05:50:51;10.97;;;4.50;;
56824;SDS011;42705;50.326;18.772;2022-07-29T05:56:13;11.57;;;3.30;;
56824;SDS011;42705;50.326;18.772;2022-07-29T06:01:34;13.03;;;3.23;;
56824;SDS011;42705;50.326;18.772;2022-07-29T06:06:56;3.12;;;2.05;;
56824;SDS011;42705;50.326;18.772;2022-07-29T06:12:17;7.40;;;2.52;;
56824;SDS011;42705;50.326;18.772;2022-07-29T06:23:00;4.05;;;2.33;;
56824;SDS011;42705;50.326;18.772;2022-07-29T06:28:23;5.80;;;2.35;;
56824;SDS011;42705;50.326;18.772;2022-07-29T06:33:44;4.72;;;2.45;;
56824;SDS011;42705;50.326;18.772;2022-07-29T06:39:05;6.50;;;2.70;;
56824;SDS011;42705;50.326;18.772;2022-07-29T06:44:27;7.70;;;2.47;;
56824;SDS011;42705;50.326;18.772;2022-07-29T06:49:48;8.95;;;2.33;;
56824;SDS011;42705;50.326;18.772;2022-07-29T06:55:09;5.03;;;1.83;;
56824;SDS011;42705;50.326;18.772;2022-07-29T07:00:30;3.63;;;2.00;;
56824;SDS011;42705;50.326;18.772;2022-07-29T07:05:52;3.72;;;1.92;;
56824;SDS011;42705;50.326;18.772;2022-07-29T07:11:14;4.72;;;2.05;;
56824;SDS011;42705;50.326;18.772;2022-07-29T07:16:35;3.70;;;1.62;;
56824;SDS011;42705;50.326;18.772;2022-07-29T07:21:55;5.15;;;1.57;;
56824;SDS011;42705;50.326;18.772;2022-07-29T07:27:16;4.97;;;2.37;;
56824;SDS011;42705;50.326;18.772;2022-07-29T07:32:37;7.90;;;1.83;;
56824;SDS011;42705;50.326;18.772;2022-07-29T07:37:59;2.53;;;2.00;;
56824;SDS011;42705;50.326;18.772;2022-07-29T07:43:19;3.20;;;2.00;;
56824;SDS011;42705;50.326;18.772;2022-07-29T07:48:40;5.47;;;2.02;;
56824;SDS011;42705;50.326;18.772;2022-07-29T07:54:01;4.47;;;1.73;;
56824;SDS011;42705;50.326;18.772;2022-07-29T07:59:22;2.80;;;2.17;;
56824;SDS011;42705;50.326;18.772;2022-07-29T08:04:43;6.55;;;2.27;;
56824;SDS011;42705;50.326;18.772;2022-07-29T08:10:04;3.70;;;1.92;;
56824;SDS011;42705;50.326;18.772;2022-07-29T08:15:27;2.83;;;1.98;;
56824;SDS011;42705;50.326;18.772;2022-07-29T08:20:48;3.00;;;2.03;;
56824;SDS011;42705;50.326;18.772;2022-07-29T08:26:09;9.40;;;2.20;;
56824;SDS011;42705;50.326;18.772;2022-07-29T08:31:33;3.70;;;2.12;;
56824;SDS011;42705;50.326;18.772;2022-07-29T08:36:54;3.17;;;2.00;;
56824;SDS011;42705;50.326;18.772;2022-07-29T08:42:17;4.85;;;2.40;;
56824;SDS011;42705;50.326;18.772;2022-07-29T08:47:38;7.25;;;2.45;;
56824;SDS011;42705;50.326;18.772;2022-07-29T08:53:00;11.68;;;6.85;;
56824;SDS011;42705;50.326;18.772;2022-07-29T08:58:22;4.78;;;2.30;;
56824;SDS011;42705;50.326;18.772;2022-07-29T09:03:44;3.67;;;2.17;;
56824;SDS011;42705;50.326;18.772;2022-07-29T09:09:07;3.05;;;2.10;;
56824;SDS011;42705;50.326;18.772;2022-07-29T09:19:49;8.65;;;2.52;;
56824;SDS011;42705;50.326;18.772;2022-07-29T09:25:11;4.80;;;2.13;;
56824;SDS011;42705;50.326;18.772;2022-07-29T09:30:32;3.50;;;2.58;;
56824;SDS011;42705;50.326;18.772;2022-07-29T09:36:02;4.85;;;2.40;;
56824;SDS011;42705;50.326;18.772;2022-07-29T09:41:27;4.17;;;2.42;;
56824;SDS011;42705;50.326;18.772;2022-07-29T09:46:59;4.97;;;2.40;;
56824;SDS011;42705;50.326;18.772;2022-07-29T09:52:27;8.05;;;2.72;;
56824;SDS011;42705;50.326;18.772;2022-07-29T09:57:50;4.05;;;2.70;;
56824;SDS011;42705;50.326;18.772;2022-07-29T10:03:11;5.30;;;2.22;;
56824;SDS011;42705;50.326;18.772;2022-07-29T10:08:33;4.58;;;2.50;;
56824;SDS011;42705;50.326;18.772;2022-07-29T10:13:54;4.20;;;2.30;;
56824;SDS011;42705;50.326;18.772;2022-07-29T10:19:15;6.40;;;2.60;;
56824;SDS011;42705;50.326;18.772;2022-07-29T10:24:38;5.33;;;1.98;;
56824;SDS011;42705;50.326;18.772;2022-07-29T10:29:59;5.00;;;2.30;;
56824;SDS011;42705;50.326;18.772;2022-07-29T10:35:27;4.92;;;2.25;;
56824;SDS011;42705;50.326;18.772;2022-07-29T10:41:12;11.08;;;3.17;;
56824;SDS011;42705;50.326;18.772;2022-07-29T10:46:54;2.72;;;2.30;;
56824;SDS011;42705;50.326;18.772;2022-07-29T10:52:16;5.58;;;2.52;;
56824;SDS011;42705;50.326;18.772;2022-07-29T10:57:38;5.75;;;2.40;;
56824;SDS011;42705;50.326;18.772;2022-07-29T11:03:00;5.50;;;2.22;;
56824;SDS011;42705;50.326;18.772;2022-07-29T11:24:42;6.78;;;2.27;;
56824;SDS011;42705;50.326;18.772;2022-07-29T11:30:03;6.65;;;3.87;;
56824;SDS011;42705;50.326;18.772;2022-07-29T11:35:25;7.87;;;3.20;;
56824;SDS011;42705;50.326;18.772;2022-07-29T11:41:18;7.83;;;3.02;;
56824;SDS011;42705;50.326;18.772;2022-07-29T11:46:49;4.55;;;2.70;;
56824;SDS011;42705;50.326;18.772;2022-07-29T11:52:11;5.08;;;2.55;;
56824;SDS011;42705;50.326;18.772;2022-07-29T12:08:17;5.22;;;2.72;;
56824;SDS011;42705;50.326;18.772;2022-07-29T12:13:41;5.17;;;2.25;;
56824;SDS011;42705;50.326;18.772;2022-07-29T12:19:03;5.85;;;2.50;;
56824;SDS011;42705;50.326;18.772;2022-07-29T12:24:25;3.77;;;2.42;;
56824;SDS011;42705;50.326;18.772;2022-07-29T12:29:58;5.28;;;2.42;;
56824;SDS011;42705;50.326;18.772;2022-07-29T12:35:23;5.47;;;2.27;;
56824;SDS011;42705;50.326;18.772;2022-07-29T12:40:44;6.47;;;2.50;;
56824;SDS011;42705;50.326;18.772;2022-07-29T12:46:13;5.53;;;2.52;;
56824;SDS011;42705;50.326;18.772;2022-07-29T12:51:37;4.87;;;2.62;;
56824;SDS011;42705;50.326;18.772;2022-07-29T12:57:01;5.55;;;2.50;;
56824;SDS011;42705;50.326;18.772;2022-07-29T13:02:23;8.33;;;3.20;;
56824;SDS011;42705;50.326;18.772;2022-07-29T13:07:44;6.05;;;2.52;;
56824;SDS011;42705;50.326;18.772;2022-07-29T13:13:05;6.57;;;2.80;;
56824;SDS011;42705;50.326;18.772;2022-07-29T13:18:31;5.08;;;2.47;;
56824;SDS011;42705;50.326;18.772;2022-07-29T13:23:56;4.60;;;2.60;;
56824;SDS011;42705;50.326;18.772;2022-07-29T13:29:17;7.95;;;2.58;;
56824;SDS011;42705;50.326;18.772;2022-07-29T13:39:59;5.92;;;2.80;;
56824;SDS011;42705;50.326;18.772;2022-07-29T13:45:23;3.77;;;2.42;;
56824;SDS011;42705;50.326;18.772;2022-07-29T13:50:44;4.97;;;2.10;;
56824;SDS011;42705;50.326;18.772;2022-07-29T13:56:06;3.30;;;2.17;;
56824;SDS011;42705;50.326;18.772;2022-07-29T14:01:27;3.25;;;1.85;;
56824;SDS011;42705;50.326;18.772;2022-07-29T14:06:50;3.25;;;1.70;;
56824;SDS011;42705;50.326;18.772;2022-07-29T14:12:11;4.65;;;1.77;;
56824;SDS011;42705;50.326;18.772;2022-07-29T14:17:32;7.15;;;1.85;;
56824;SDS011;42705;50.326;18.772;2022-07-29T14:22:54;5.12;;;2.30;;
56824;SDS011;42705;50.326;18.772;2022-07-29T14:28:15;3.98;;;1.95;;
56824;SDS011;42705;50.326;18.772;2022-07-29T14:33:36;7.50;;;2.20;;
56824;SDS011;42705;50.326;18.772;2022-07-29T14:38:58;3.80;;;2.05;;
56824;SDS011;42705;50.326;18.772;2022-07-29T14:44:18;3.50;;;1.90;;
56824;SDS011;42705;50.326;18.772;2022-07-29T14:49:39;6.08;;;2.15;;
56824;SDS011;42705;50.326;18.772;2022-07-29T14:55:01;5.75;;;2.08;;
56824;SDS011;42705;50.326;18.772;2022-07-29T15:00:22;2.77;;;1.85;;
56824;SDS011;42705;50.326;18.772;2022-07-29T15:05:43;4.62;;;2.10;;
56824;SDS011;42705;50.326;18.772;2022-07-29T15:11:04;4.50;;;2.33;;
56824;SDS011;42705;50.326;18.772;2022-07-29T15:16:24;3.45;;;2.25;;
56824;SDS011;42705;50.326;18.772;2022-07-29T15:21:45;1.98;;;1.87;;
56824;SDS011;42705;50.326;18.772;2022-07-29T15:27:06;3.98;;;1.92;;
56824;SDS011;42705;50.326;18.772;2022-07-29T15:32:27;3.70;;;2.20;;
56824;SDS011;42705;50.326;18.772;2022-07-29T15:37:48;3.60;;;2.35;;
56824;SDS011;42705;50.326;18.772;2022-07-29T15:43:09;3.02;;;2.37;;
56824;SDS011;42705;50.326;18.772;2022-07-29T15:48:30;2.83;;;2.45;;
56824;SDS011;42705;50.326;18.772;2022-07-29T15:53:52;4.00;;;2.50;;
56824;SDS011;42705;50.326;18.772;2022-07-29T15:59:13;2.92;;;2.30;;
56824;SDS011;42705;50.326;18.772;2022-07-29T16:09:55;3.02;;;2.72;;
56824;SDS011;42705;50.326;18.772;2022-07-29T16:15:15;4.30;;;2.55;;
56824;SDS011;42705;50.326;18.772;2022-07-29T16:25:57;6.92;;;2.70;;
56824;SDS011;42705;50.326;18.772;2022-07-29T16:31:18;3.30;;;2.62;;
56824;SDS011;42705;50.326;18.772;2022-07-29T16:36:40;6.00;;;3.10;;
56824;SDS011;42705;50.326;18.772;2022-07-29T16:42:01;3.20;;;2.90;;
56824;SDS011;42705;50.326;18.772;2022-07-29T16:47:24;7.75;;;3.25;;
56824;SDS011;42705;50.326;18.772;2022-07-29T16:52:45;6.73;;;3.17;;
56824;SDS011;42705;50.326;18.772;2022-07-29T17:03:27;9.00;;;4.33;;
56824;SDS011;42705;50.326;18.772;2022-07-29T17:08:48;7.83;;;4.30;;
56824;SDS011;42705;50.326;18.772;2022-07-29T17:14:08;6.10;;;3.63;;
56824;SDS011;42705;50.326;18.772;2022-07-29T17:19:31;6.45;;;3.75;;
56824;SDS011;42705;50.326;18.772;2022-07-29T17:24:56;9.35;;;4.97;;
56824;SDS011;42705;50.326;18.772;2022-07-29T17:30:17;11.23;;;4.60;;
56824;SDS011;42705;50.326;18.772;2022-07-29T17:35:38;8.37;;;4.80;;
56824;SDS011;42705;50.326;18.772;2022-07-29T17:41:17;10.30;;;3.98;;
56824;SDS011;42705;50.326;18.772;2022-07-29T17:46:39;9.20;;;4.78;;
56824;SDS011;42705;50.326;18.772;2022-07-29T17:51:59;8.40;;;4.50;;
56824;SDS011;42705;50.326;18.772;2022-07-29T17:57:20;8.10;;;5.67;;
56824;SDS011;42705;50.326;18.772;2022-07-29T18:02:41;7.80;;;5.00;;
56824;SDS011;42705;50.326;18.772;2022-07-29T18:08:03;7.08;;;4.80;;
56824;SDS011;42705;50.326;18.772;2022-07-29T18:13:24;13.40;;;8.68;;
56824;SDS011;42705;50.326;18.772;2022-07-29T18:24:08;13.72;;;8.58;;
56824;SDS011;42705;50.326;18.772;2022-07-29T18:29:30;16.70;;;7.45;;
56824;SDS011;42705;50.326;18.772;2022-07-29T18:34:50;11.83;;;7.57;;
56824;SDS011;42705;50.326;18.772;2022-07-29T18:40:11;10.93;;;6.40;;
56824;SDS011;42705;50.326;18.772;2022-07-29T18:45:32;8.30;;;6.03;;
56824;SDS011;42705;50.326;18.772;2022-07-29T18:50:54;8.08;;;5.90;;
56824;SDS011;42705;50.326;18.772;2022-07-29T18:56:15;7.67;;;6.20;;
56824;SDS011;42705;50.326;18.772;2022-07-29T19:01:35;9.95;;;6.05;;
56824;SDS011;42705;50.326;18.772;2022-07-29T19:12:19;15.45;;;8.00;;
56824;SDS011;42705;50.326;18.772;2022-07-29T19:17:40;13.40;;;7.47;;
56824;SDS011;42705;50.326;18.772;2022-07-29T19:23:01;13.13;;;8.07;;
56824;SDS011;42705;50.326;18.772;2022-07-29T19:28:22;14.30;;;7.80;;
56824;SDS011;42705;50.326;18.772;2022-07-29T19:33:43;7.60;;;5.43;;
56824;SDS011;42705;50.326;18.772;2022-07-29T19:39:04;7.33;;;5.57;;
56824;SDS011;42705;50.326;18.772;2022-07-29T19:44:25;7.10;;;5.17;;
56824;SDS011;42705;50.326;18.772;2022-07-29T19:49:46;8.08;;;4.70;;
56824;SDS011;42705;50.326;18.772;2022-07-29T19:55:07;5.65;;;4.45;;
56824;SDS011;42705;50.326;18.772;2022-07-29T20:00:29;8.30;;;4.90;;
56824;SDS011;42705;50.326;18.772;2022-07-29T20:05:50;8.05;;;4.97;;
56824;SDS011;42705;50.326;18.772;2022-07-29T20:11:12;7.25;;;5.25;;
56824;SDS011;42705;50.326;18.772;2022-07-29T20:16:33;5.70;;;5.10;;
56824;SDS011;42705;50.326;18.772;2022-07-29T20:21:53;5.07;;;4.27;;
56824;SDS011;42705;50.326;18.772;2022-07-29T20:27:14;6.78;;;4.75;;
56824;SDS011;42705;50.326;18.772;2022-07-29T20:32:38;7.45;;;5.35;;
56824;SDS011;42705;50.326;18.772;2022-07-29T20:38:00;8.15;;;6.00;;
56824;SDS011;42705;50.326;18.772;2022-07-29T20:43:21;11.25;;;7.30;;
56824;SDS011;42705;50.326;18.772;2022-07-29T20:48:44;11.85;;;8.75;;
56824;SDS011;42705;50.326;18.772;2022-07-29T20:54:06;14.13;;;8.85;;
56824;SDS011;42705;50.326;18.772;2022-07-29T20:59:28;12.13;;;7.47;;
56824;SDS011;42705;50.326;18.772;2022-07-29T21:04:48;8.58;;;5.80;;
56824;SDS011;42705;50.326;18.772;2022-07-29T21:10:09;8.50;;;5.87;;
56824;SDS011;42705;50.326;18.772;2022-07-29T21:15:31;9.40;;;6.17;;
56824;SDS011;42705;50.326;18.772;2022-07-29T21:20:52;6.87;;;6.10;;
56824;SDS011;42705;50.326;18.772;2022-07-29T21:26:14;8.50;;;6.60;;
56824;SDS011;42705;50.326;18.772;2022-07-29T21:31:35;12.15;;;6.92;;
56824;SDS011;42705;50.326;18.772;2022-07-29T21:36:56;14.03;;;8.45;;
56824;SDS011;42705;50.326;18.772;2022-07-29T21:42:16;9.27;;;7.27;;
56824;SDS011;42705;50.326;18.772;2022-07-29T21:47:38;10.30;;;7.13;;
56824;SDS011;42705;50.326;18.772;2022-07-29T21:53:00;9.45;;;7.10;;
56824;SDS011;42705;50.326;18.772;2022-07-29T21:58:21;10.48;;;6.50;;
56824;SDS011;42705;50.326;18.772;2022-07-29T22:03:43;12.40;;;8.55;;
56824;SDS011;42705;50.326;18.772;2022-07-29T22:09:03;11.83;;;8.38;;
56824;SDS011;42705;50.326;18.772;2022-07-29T22:14:25;10.53;;;7.60;;
56824;SDS011;42705;50.326;18.772;2022-07-29T22:19:46;9.47;;;7.53;;
56824;SDS011;42705;50.326;18.772;2022-07-29T22:25:07;10.85;;;8.13;;
56824;SDS011;42705;50.326;18.772;2022-07-29T22:30:29;13.50;;;9.00;;
56824;SDS011;42705;50.326;18.772;2022-07-29T22:35:50;12.40;;;10.88;;
56824;SDS011;42705;50.326;18.772;2022-07-29T22:41:11;17.47;;;11.77;;
56824;SDS011;42705;50.326;18.772;2022-07-29T22:46:32;19.23;;;13.10;;
56824;SDS011;42705;50.326;18.772;2022-07-29T22:51:54;18.15;;;12.95;;
56824;SDS011;42705;50.326;18.772;2022-07-29T22:57:15;14.83;;;10.13;;
56824;SDS011;42705;50.326;18.772;2022-07-29T23:02:35;13.03;;;9.97;;
56824;SDS011;42705;50.326;18.772;2022-07-29T23:07:57;14.55;;;10.43;;
56824;SDS011;42705;50.326;18.772;2022-07-29T23:13:18;12.63;;;8.43;;
56824;SDS011;42705;50.326;18.772;2022-07-29T23:18:39;9.20;;;8.20;;
56824;SDS011;42705;50.326;18.772;2022-07-29T23:23:59;11.05;;;7.65;;
56824;SDS011;42705;50.326;18.772;2022-07-29T23:29:20;10.10;;;7.50;;
56824;SDS011;42705;50.326;18.772;2022-07-29T23:34:41;11.70;;;7.93;;
56824;SDS011;42705;50.326;18.772;2022-07-29T23:40:03;8.83;;;6.45;;
56824;SDS011;42705;50.326;18.772;2022-07-29T23:45:25;10.38;;;6.78;;
56824;SDS011;42705;50.326;18.772;2022-07-29T23:50:46;9.77;;;7.07;;
56824;SDS011;42705;50.326;18.772;2022-07-29T23:56:06;6.75;;;5.87;;
